Gomer, Ohio
Current Conditions -  °F | °C
As of 10:53 AM on Wednesday 28 Jan 2015 (Local Time) from KAOH Reporting Station
Haze Haze  
Wind Chill:   Ceiling: Unl
Heat Index: 15°   Visibility: 4mi
Dew Point: 10°   Wind: 6mph
Humidity: 80%   Direction: 170°S
Pressure: 30.36"   Gusts: NA
Location:  40.84°N, 84.19°W
Report Text: KAOH 281553Z AUTO 17005KT 4SM HZ CLR M09/M12 A3036 RMK AO2 SLP299 T10941122
Loading
Personal Weather Stations






























Interactive Weather Map New forecast layout! Learn more

10-Day Weather Forecast

Advertisements
Track Severe Weather on mobile